DLH8352 KMIA-KATL
Flight info
| Callsign | DLH8352 |
|---|---|
| Flight time | 1h 26m |
| Altitude | 38000 |
| Route | FLMGO2 STYMY Q77 MJAMS/N0470F390 Q77 SHRKS/N0473F380 LAIRI LARZZ JJEDI4 |
| Aircraft | A346/H-SDE2E3FGHIJ3J4J5M1RWXY/LB1D1 |
Departure
| Time | 2026-05-07 02:39 |
|---|---|
| Airport | Miami International Airport (KMIA) |
Arrival
| Time | 2026-05-07 04:06 |
|---|---|
| Airport | Hartsfield Jackson Atlanta International Airport (KATL) |
| Time | Latitude | Longitude | Altitude | Speed | Heading |
|---|---|---|---|---|---|
| 2026-05-07 02:01 | 25.79000 | -80.27402 | 5 ft | 0 kts | 47° |
| 2026-05-07 02:18 | 25.78988 | -80.27417 | 29 ft | 0 kts | 47° |
| 2026-05-07 02:18 | 25.78970 | -80.27438 | 29 ft | 0 kts | 47° |
| 2026-05-07 02:18 | 25.78952 | -80.27460 | 29 ft | 0 kts | 47° |
| 2026-05-07 02:19 | 25.78940 | -80.27474 | 29 ft | 0 kts | 47° |
| 2026-05-07 02:20 | 25.78939 | -80.27475 | 29 ft | 0 kts | 47° |
| 2026-05-07 02:20 | 25.78923 | -80.27495 | 29 ft | 0 kts | 47° |
| 2026-05-07 02:20 | 25.78911 | -80.27510 | 29 ft | 0 kts | 47° |
| 2026-05-07 02:28 | 25.78918 | -80.27501 | 28 ft | 0 kts | 52° |
| 2026-05-07 02:29 | 25.78925 | -80.27495 | 26 ft | 6 kts | 28° |
| 2026-05-07 02:29 | 25.78947 | -80.27509 | 26 ft | 5 kts | 238° |
| 2026-05-07 02:29 | 25.78911 | -80.27557 | 26 ft | 10 kts | 238° |
| 2026-05-07 02:29 | 25.78932 | -80.27627 | 24 ft | 12 kts | 300° |
| 2026-05-07 02:30 | 25.78946 | -80.27739 | 24 ft | 17 kts | 270° |
| 2026-05-07 02:30 | 25.78941 | -80.27873 | 27 ft | 15 kts | 263° |
| 2026-05-07 02:30 | 25.78941 | -80.27920 | 24 ft | 7 kts | 283° |
| 2026-05-07 02:30 | 25.78976 | -80.28007 | 27 ft | 18 kts | 297° |
| 2026-05-07 02:31 | 25.79047 | -80.28143 | 27 ft | 22 kts | 300° |
| 2026-05-07 02:31 | 25.79133 | -80.28302 | 25 ft | 26 kts | 301° |
| 2026-05-07 02:31 | 25.79227 | -80.28437 | 24 ft | 21 kts | 308° |
| 2026-05-07 02:31 | 25.79310 | -80.28591 | 25 ft | 25 kts | 300° |
| 2026-05-07 02:32 | 25.79398 | -80.28762 | 25 ft | 26 kts | 300° |
| 2026-05-07 02:32 | 25.79489 | -80.28940 | 27 ft | 27 kts | 299° |
| 2026-05-07 02:32 | 25.79564 | -80.29061 | 25 ft | 10 kts | 328° |
| 2026-05-07 02:32 | 25.79657 | -80.29086 | 24 ft | 20 kts | 356° |
| 2026-05-07 02:33 | 25.79808 | -80.29095 | 24 ft | 23 kts | 357° |
| 2026-05-07 02:33 | 25.79959 | -80.29102 | 26 ft | 10 kts | 358° |
| 2026-05-07 02:33 | 25.80002 | -80.29158 | 29 ft | 13 kts | 259° |
| 2026-05-07 02:33 | 25.79996 | -80.29274 | 24 ft | 18 kts | 268° |
| 2026-05-07 02:34 | 25.79990 | -80.29431 | 23 ft | 23 kts | 268° |
| 2026-05-07 02:34 | 25.79982 | -80.29618 | 23 ft | 23 kts | 267° |
| 2026-05-07 02:34 | 25.79976 | -80.29766 | 23 ft | 19 kts | 267° |
| 2026-05-07 02:34 | 25.79971 | -80.29909 | 22 ft | 10 kts | 272° |
| 2026-05-07 02:35 | 25.79973 | -80.29927 | 22 ft | 0 kts | 277° |
| 2026-05-07 02:36 | 25.79976 | -80.29956 | 22 ft | 7 kts | 277° |
| 2026-05-07 02:37 | 25.79996 | -80.30022 | 25 ft | 11 kts | 285° |
| 2026-05-07 02:37 | 25.80002 | -80.30055 | 22 ft | 1 kts | 282° |
| 2026-05-07 02:37 | 25.80006 | -80.30072 | 22 ft | 4 kts | 282° |
| 2026-05-07 02:37 | 25.80013 | -80.30100 | 25 ft | 4 kts | 297° |
| 2026-05-07 02:38 | 25.80043 | -80.30117 | 24 ft | 7 kts | 3° |
| 2026-05-07 02:38 | 25.80074 | -80.30070 | 22 ft | 11 kts | 87° |
| 2026-05-07 02:38 | 25.80075 | -80.30065 | 22 ft | 0 kts | 87° |
| 2026-05-07 02:38 | 25.80075 | -80.30064 | 22 ft | 1 kts | 87° |
| 2026-05-07 02:39 | 25.80082 | -80.29906 | 21 ft | 66 kts | 87° |
| 2026-05-07 02:39 | 25.80117 | -80.29013 | 43 ft | 160 kts | 84° |
| 2026-05-07 02:39 | 25.80188 | -80.27695 | 918 ft | 176 kts | 91° |
| 2026-05-07 02:39 | 25.79868 | -80.26416 | 2279 ft | 175 kts | 118° |
| 2026-05-07 02:40 | 25.79342 | -80.25180 | 3303 ft | 183 kts | 99° |
| 2026-05-07 02:40 | 25.79464 | -80.23721 | 4056 ft | 199 kts | 76° |
| 2026-05-07 02:40 | 25.79811 | -80.22149 | 4807 ft | 219 kts | 75° |
| 2026-05-07 02:40 | 25.80115 | -80.20407 | 5551 ft | 240 kts | 80° |
| 2026-05-07 02:41 | 25.80512 | -80.18528 | 6359 ft | 259 kts | 65° |
| 2026-05-07 02:41 | 25.81645 | -80.16905 | 7157 ft | 274 kts | 38° |
| 2026-05-07 02:41 | 25.83362 | -80.15982 | 8172 ft | 279 kts | 13° |
| 2026-05-07 02:41 | 25.85303 | -80.15828 | 9300 ft | 281 kts | 2° |
| 2026-05-07 02:42 | 25.87274 | -80.15798 | 10313 ft | 286 kts | 1° |
| 2026-05-07 02:42 | 25.89308 | -80.15951 | 11024 ft | 302 kts | 354° |
| 2026-05-07 02:42 | 25.91433 | -80.16444 | 11577 ft | 322 kts | 346° |
| 2026-05-07 02:42 | 25.93644 | -80.17188 | 12098 ft | 341 kts | 344° |
| 2026-05-07 02:43 | 25.95963 | -80.18018 | 12671 ft | 357 kts | 342° |
| 2026-05-07 02:43 | 25.98268 | -80.19129 | 13560 ft | 364 kts | 334° |
| 2026-05-07 02:43 | 26.00408 | -80.20656 | 14513 ft | 368 kts | 324° |
| 2026-05-07 02:43 | 26.02351 | -80.22475 | 15385 ft | 372 kts | 320° |
| 2026-05-07 02:44 | 26.04316 | -80.24431 | 16256 ft | 375 kts | 319° |
| 2026-05-07 02:44 | 26.06268 | -80.26392 | 17118 ft | 379 kts | 319° |
| 2026-05-07 02:44 | 26.08234 | -80.28362 | 17971 ft | 382 kts | 319° |
| 2026-05-07 02:44 | 26.10201 | -80.30326 | 18739 ft | 386 kts | 318° |
| 2026-05-07 02:45 | 26.12209 | -80.32329 | 19463 ft | 389 kts | 318° |
| 2026-05-07 02:45 | 26.14230 | -80.34342 | 20196 ft | 392 kts | 318° |
| 2026-05-07 02:45 | 26.16272 | -80.36375 | 20952 ft | 394 kts | 318° |
| 2026-05-07 02:45 | 26.18324 | -80.38418 | 21699 ft | 397 kts | 318° |
| 2026-05-07 02:46 | 26.20404 | -80.40452 | 22437 ft | 400 kts | 320° |
| 2026-05-07 02:46 | 26.22639 | -80.42324 | 23165 ft | 404 kts | 325° |
| 2026-05-07 02:46 | 26.25044 | -80.43979 | 23861 ft | 408 kts | 329° |
| 2026-05-07 02:46 | 26.27585 | -80.45418 | 24492 ft | 410 kts | 332° |
| 2026-05-07 02:47 | 26.30170 | -80.46797 | 25136 ft | 413 kts | 333° |
| 2026-05-07 02:47 | 26.32739 | -80.48152 | 25753 ft | 416 kts | 333° |
| 2026-05-07 02:47 | 26.35401 | -80.49558 | 26378 ft | 419 kts | 333° |
| 2026-05-07 02:47 | 26.38064 | -80.50969 | 27004 ft | 422 kts | 332° |
| 2026-05-07 02:48 | 26.40725 | -80.52382 | 27622 ft | 426 kts | 332° |
| 2026-05-07 02:48 | 26.43376 | -80.53793 | 28220 ft | 429 kts | 332° |
| 2026-05-07 02:48 | 26.46109 | -80.55178 | 28834 ft | 434 kts | 334° |
| 2026-05-07 02:48 | 26.48936 | -80.56435 | 29413 ft | 438 kts | 337° |
| 2026-05-07 02:49 | 26.51847 | -80.57544 | 30033 ft | 443 kts | 339° |
| 2026-05-07 02:49 | 26.54820 | -80.58529 | 30414 ft | 452 kts | 341° |
| 2026-05-07 02:49 | 26.57888 | -80.59509 | 30614 ft | 463 kts | 341° |
| 2026-05-07 02:49 | 26.61006 | -80.60498 | 30940 ft | 469 kts | 341° |
| 2026-05-07 02:50 | 26.64157 | -80.61496 | 31528 ft | 469 kts | 341° |
| 2026-05-07 02:50 | 26.67283 | -80.62486 | 32268 ft | 466 kts | 341° |
| 2026-05-07 02:50 | 26.70387 | -80.63469 | 33157 ft | 459 kts | 341° |
| 2026-05-07 02:50 | 26.73415 | -80.64429 | 34365 ft | 446 kts | 340° |
| 2026-05-07 02:51 | 26.76366 | -80.65363 | 35283 ft | 438 kts | 340° |
| 2026-05-07 02:51 | 26.79256 | -80.66282 | 35991 ft | 436 kts | 340° |
| 2026-05-07 02:51 | 26.82169 | -80.67212 | 36581 ft | 435 kts | 340° |
| 2026-05-07 02:51 | 26.85078 | -80.68141 | 37162 ft | 434 kts | 340° |
| 2026-05-07 02:52 | 26.87981 | -80.69066 | 37766 ft | 433 kts | 339° |
| 2026-05-07 02:52 | 26.90869 | -80.70001 | 38352 ft | 430 kts | 338° |
| 2026-05-07 02:52 | 26.93712 | -80.71039 | 38863 ft | 429 kts | 336° |
| 2026-05-07 02:52 | 26.96544 | -80.72110 | 39218 ft | 430 kts | 336° |
| 2026-05-07 02:53 | 26.99385 | -80.73190 | 39543 ft | 432 kts | 336° |
| 2026-05-07 02:53 | 27.02228 | -80.74271 | 39869 ft | 433 kts | 336° |
| 2026-05-07 02:53 | 27.05083 | -80.75355 | 40080 ft | 434 kts | 336° |
| 2026-05-07 02:53 | 27.07950 | -80.76442 | 40075 ft | 434 kts | 336° |
| 2026-05-07 02:54 | 27.13686 | -80.78614 | 40077 ft | 435 kts | 336° |
| 2026-05-07 02:54 | 27.19422 | -80.80786 | 40089 ft | 434 kts | 336° |
| 2026-05-07 02:55 | 27.25155 | -80.82961 | 40078 ft | 434 kts | 336° |
| 2026-05-07 02:55 | 27.30839 | -80.85122 | 40077 ft | 434 kts | 336° |
| 2026-05-07 02:56 | 27.36528 | -80.87387 | 40078 ft | 433 kts | 335° |
| 2026-05-07 02:56 | 27.42192 | -80.89735 | 40079 ft | 433 kts | 335° |
| 2026-05-07 02:57 | 27.47854 | -80.92076 | 40079 ft | 434 kts | 335° |
| 2026-05-07 02:57 | 27.53538 | -80.94422 | 40080 ft | 434 kts | 335° |
| 2026-05-07 02:58 | 27.59222 | -80.96767 | 40082 ft | 434 kts | 335° |
| 2026-05-07 02:58 | 27.64901 | -80.99111 | 40082 ft | 434 kts | 335° |
| 2026-05-07 02:59 | 27.70536 | -81.01440 | 40081 ft | 435 kts | 335° |
| 2026-05-07 02:59 | 27.76211 | -81.03787 | 40081 ft | 435 kts | 335° |
| 2026-05-07 03:00 | 27.81893 | -81.06137 | 40085 ft | 434 kts | 334° |
| 2026-05-07 03:00 | 27.87564 | -81.08489 | 40081 ft | 433 kts | 334° |
| 2026-05-07 03:01 | 27.92269 | -81.10442 | 40082 ft | 433 kts | 334° |
| 2026-05-07 03:01 | 27.98859 | -81.13179 | 40080 ft | 433 kts | 334° |
| 2026-05-07 03:02 | 28.03569 | -81.15189 | 40085 ft | 432 kts | 332° |
| 2026-05-07 03:02 | 28.09066 | -81.17950 | 40108 ft | 431 kts | 330° |
| 2026-05-07 03:03 | 28.14515 | -81.20756 | 40102 ft | 429 kts | 330° |
| 2026-05-07 03:03 | 28.19916 | -81.23544 | 40105 ft | 429 kts | 330° |
| 2026-05-07 03:04 | 28.25356 | -81.26350 | 40106 ft | 429 kts | 330° |
| 2026-05-07 03:04 | 28.30798 | -81.29158 | 40091 ft | 429 kts | 330° |
| 2026-05-07 03:05 | 28.36246 | -81.31969 | 40095 ft | 430 kts | 330° |
| 2026-05-07 03:05 | 28.41710 | -81.34759 | 40104 ft | 429 kts | 330° |
| 2026-05-07 03:06 | 28.47152 | -81.37540 | 40100 ft | 429 kts | 330° |
| 2026-05-07 03:06 | 28.52599 | -81.40329 | 40106 ft | 429 kts | 330° |
| 2026-05-07 03:07 | 28.58041 | -81.43117 | 40105 ft | 429 kts | 330° |
| 2026-05-07 03:07 | 28.63276 | -81.45802 | 40103 ft | 429 kts | 330° |
| 2026-05-07 03:08 | 28.68716 | -81.48594 | 40097 ft | 429 kts | 330° |
| 2026-05-07 03:08 | 28.74166 | -81.51392 | 40095 ft | 427 kts | 329° |
| 2026-05-07 03:09 | 28.79585 | -81.54183 | 40087 ft | 427 kts | 329° |
| 2026-05-07 03:09 | 28.85014 | -81.56935 | 40081 ft | 429 kts | 332° |
| 2026-05-07 03:10 | 28.90672 | -81.59226 | 40082 ft | 433 kts | 337° |
| 2026-05-07 03:10 | 28.96563 | -81.60884 | 40083 ft | 439 kts | 342° |
| 2026-05-07 03:11 | 29.02660 | -81.61867 | 40084 ft | 444 kts | 347° |
| 2026-05-07 03:11 | 29.08809 | -81.62448 | 40083 ft | 443 kts | 348° |
| 2026-05-07 03:12 | 29.14910 | -81.62999 | 40079 ft | 442 kts | 348° |
| 2026-05-07 03:12 | 29.21056 | -81.63557 | 40079 ft | 442 kts | 348° |
| 2026-05-07 03:13 | 29.27193 | -81.64118 | 40079 ft | 442 kts | 348° |
| 2026-05-07 03:13 | 29.33322 | -81.64675 | 40088 ft | 441 kts | 347° |
| 2026-05-07 03:14 | 29.39444 | -81.65238 | 40086 ft | 441 kts | 347° |
| 2026-05-07 03:15 | 29.48620 | -81.66079 | 40086 ft | 440 kts | 347° |
| 2026-05-07 03:15 | 29.54692 | -81.66638 | 40083 ft | 440 kts | 347° |
| 2026-05-07 03:16 | 29.60794 | -81.67197 | 40092 ft | 439 kts | 347° |
| 2026-05-07 03:16 | 29.66889 | -81.67760 | 40083 ft | 439 kts | 347° |
| 2026-05-07 03:17 | 29.72980 | -81.68325 | 40080 ft | 439 kts | 347° |
| 2026-05-07 03:17 | 29.79069 | -81.68893 | 40084 ft | 439 kts | 347° |
| 2026-05-07 03:18 | 29.85166 | -81.69460 | 40077 ft | 439 kts | 347° |
| 2026-05-07 03:18 | 29.91269 | -81.70028 | 40078 ft | 441 kts | 347° |
| 2026-05-07 03:19 | 29.97389 | -81.70596 | 40064 ft | 441 kts | 347° |
| 2026-05-07 03:19 | 30.03502 | -81.71165 | 40056 ft | 441 kts | 347° |
| 2026-05-07 03:20 | 30.09583 | -81.71731 | 40074 ft | 441 kts | 347° |
| 2026-05-07 03:20 | 30.15717 | -81.72302 | 40072 ft | 442 kts | 347° |
| 2026-05-07 03:21 | 30.21869 | -81.72877 | 40066 ft | 444 kts | 347° |
| 2026-05-07 03:21 | 30.28039 | -81.73454 | 40087 ft | 444 kts | 347° |
| 2026-05-07 03:22 | 30.34206 | -81.74030 | 40086 ft | 444 kts | 347° |
| 2026-05-07 03:22 | 30.40331 | -81.74603 | 40060 ft | 444 kts | 347° |
| 2026-05-07 03:23 | 30.46502 | -81.75180 | 40062 ft | 444 kts | 347° |
| 2026-05-07 03:23 | 30.52661 | -81.75769 | 40058 ft | 443 kts | 346° |
| 2026-05-07 03:24 | 30.58705 | -81.76856 | 40058 ft | 436 kts | 339° |
| 2026-05-07 03:24 | 30.64501 | -81.78677 | 40060 ft | 429 kts | 334° |
| 2026-05-07 03:25 | 30.70019 | -81.81186 | 40094 ft | 422 kts | 328° |
| 2026-05-07 03:25 | 30.75299 | -81.84178 | 40075 ft | 423 kts | 326° |
| 2026-05-07 03:26 | 30.80575 | -81.87235 | 40072 ft | 424 kts | 326° |
| 2026-05-07 03:26 | 30.85853 | -81.90297 | 40047 ft | 424 kts | 326° |
| 2026-05-07 03:27 | 30.91131 | -81.93361 | 40048 ft | 423 kts | 326° |
| 2026-05-07 03:27 | 30.96374 | -81.96408 | 40052 ft | 423 kts | 326° |
| 2026-05-07 03:28 | 31.01649 | -81.99477 | 40059 ft | 424 kts | 326° |
| 2026-05-07 03:28 | 31.06916 | -82.02545 | 40039 ft | 424 kts | 326° |
| 2026-05-07 03:29 | 31.12195 | -82.05624 | 40034 ft | 424 kts | 326° |
| 2026-05-07 03:29 | 31.17466 | -82.08702 | 40037 ft | 424 kts | 326° |
| 2026-05-07 03:30 | 31.22743 | -82.11787 | 40036 ft | 424 kts | 326° |
| 2026-05-07 03:30 | 31.28027 | -82.14881 | 40038 ft | 424 kts | 326° |
| 2026-05-07 03:31 | 31.33309 | -82.17976 | 40037 ft | 425 kts | 326° |
| 2026-05-07 03:31 | 31.38594 | -82.21079 | 40031 ft | 425 kts | 326° |
| 2026-05-07 03:32 | 31.43857 | -82.24172 | 40027 ft | 425 kts | 326° |
| 2026-05-07 03:32 | 31.49153 | -82.27288 | 40023 ft | 425 kts | 326° |
| 2026-05-07 03:33 | 31.54444 | -82.30405 | 40017 ft | 425 kts | 326° |
| 2026-05-07 03:33 | 31.59737 | -82.33525 | 40019 ft | 426 kts | 325° |
| 2026-05-07 03:34 | 31.65038 | -82.36657 | 40011 ft | 426 kts | 325° |
| 2026-05-07 03:34 | 31.70326 | -82.39785 | 40017 ft | 426 kts | 325° |
| 2026-05-07 03:35 | 31.75620 | -82.42915 | 40000 ft | 425 kts | 325° |
| 2026-05-07 03:35 | 31.80895 | -82.46044 | 39998 ft | 424 kts | 325° |
| 2026-05-07 03:36 | 31.86166 | -82.49172 | 40026 ft | 424 kts | 325° |
| 2026-05-07 03:36 | 31.91395 | -82.52310 | 40015 ft | 422 kts | 323° |
| 2026-05-07 03:37 | 31.96375 | -82.55887 | 40015 ft | 416 kts | 318° |
| 2026-05-07 03:37 | 32.00952 | -82.59976 | 40010 ft | 411 kts | 313° |
| 2026-05-07 03:38 | 32.05295 | -82.64367 | 40008 ft | 411 kts | 312° |
| 2026-05-07 03:38 | 32.09632 | -82.68788 | 39997 ft | 411 kts | 312° |
| 2026-05-07 03:39 | 32.13941 | -82.73187 | 39475 ft | 406 kts | 312° |
| 2026-05-07 03:39 | 32.16097 | -82.75392 | 37984 ft | 414 kts | 312° |
| 2026-05-07 03:39 | 32.18296 | -82.77655 | 36241 ft | 426 kts | 313° |
| 2026-05-07 03:39 | 32.20532 | -82.79952 | 34655 ft | 434 kts | 313° |
| 2026-05-07 03:40 | 32.22832 | -82.82318 | 32911 ft | 442 kts | 313° |
| 2026-05-07 03:40 | 32.25168 | -82.84725 | 31099 ft | 448 kts | 314° |
| 2026-05-07 03:40 | 32.27515 | -82.87136 | 29892 ft | 445 kts | 314° |
| 2026-05-07 03:40 | 32.29832 | -82.89503 | 29574 ft | 432 kts | 314° |
| 2026-05-07 03:41 | 32.32082 | -82.91799 | 29296 ft | 423 kts | 314° |
| 2026-05-07 03:41 | 32.34305 | -82.94075 | 28974 ft | 421 kts | 314° |
| 2026-05-07 03:41 | 32.36509 | -82.96337 | 28559 ft | 418 kts | 314° |
| 2026-05-07 03:41 | 32.38699 | -82.98588 | 28122 ft | 415 kts | 314° |
| 2026-05-07 03:42 | 32.40868 | -83.00817 | 27673 ft | 412 kts | 314° |
| 2026-05-07 03:42 | 32.43026 | -83.03035 | 27239 ft | 409 kts | 314° |
| 2026-05-07 03:42 | 32.45180 | -83.05251 | 26738 ft | 405 kts | 314° |
| 2026-05-07 03:42 | 32.47303 | -83.07438 | 26231 ft | 402 kts | 314° |
| 2026-05-07 03:43 | 32.49407 | -83.09606 | 25743 ft | 399 kts | 314° |
| 2026-05-07 03:43 | 32.51495 | -83.11759 | 25260 ft | 397 kts | 314° |
| 2026-05-07 03:43 | 32.53576 | -83.13907 | 24782 ft | 394 kts | 314° |
| 2026-05-07 03:43 | 32.55615 | -83.16013 | 24308 ft | 392 kts | 314° |
| 2026-05-07 03:44 | 32.57670 | -83.18137 | 23844 ft | 390 kts | 314° |
| 2026-05-07 03:44 | 32.59712 | -83.20250 | 23336 ft | 388 kts | 314° |
| 2026-05-07 03:44 | 32.61741 | -83.22351 | 22819 ft | 385 kts | 314° |
| 2026-05-07 03:44 | 32.63754 | -83.24438 | 22355 ft | 382 kts | 314° |
| 2026-05-07 03:45 | 32.65745 | -83.26505 | 21896 ft | 378 kts | 314° |
| 2026-05-07 03:45 | 32.67718 | -83.28553 | 21447 ft | 374 kts | 314° |
| 2026-05-07 03:45 | 32.69661 | -83.30573 | 21012 ft | 370 kts | 313° |
| 2026-05-07 03:45 | 32.71593 | -83.32584 | 20589 ft | 367 kts | 314° |
| 2026-05-07 03:46 | 32.73507 | -83.34582 | 20123 ft | 365 kts | 314° |
| 2026-05-07 03:46 | 32.75412 | -83.36566 | 19696 ft | 363 kts | 314° |
| 2026-05-07 03:46 | 32.77305 | -83.38537 | 19270 ft | 360 kts | 313° |
| 2026-05-07 03:46 | 32.79185 | -83.40495 | 18812 ft | 358 kts | 313° |
| 2026-05-07 03:47 | 32.81053 | -83.42443 | 18415 ft | 356 kts | 313° |
| 2026-05-07 03:47 | 32.82909 | -83.44380 | 17994 ft | 354 kts | 313° |
| 2026-05-07 03:47 | 32.84732 | -83.46282 | 17520 ft | 352 kts | 313° |
| 2026-05-07 03:47 | 32.86570 | -83.48201 | 17073 ft | 350 kts | 313° |
| 2026-05-07 03:48 | 32.88395 | -83.50109 | 16622 ft | 348 kts | 312° |
| 2026-05-07 03:48 | 32.90205 | -83.52003 | 16187 ft | 346 kts | 312° |
| 2026-05-07 03:48 | 32.92012 | -83.53893 | 15753 ft | 345 kts | 311° |
| 2026-05-07 03:48 | 32.93816 | -83.55782 | 15287 ft | 345 kts | 311° |
| 2026-05-07 03:49 | 32.95623 | -83.57675 | 14826 ft | 345 kts | 311° |
| 2026-05-07 03:49 | 32.96826 | -83.58936 | 14525 ft | 345 kts | 311° |
| 2026-05-07 03:49 | 32.99215 | -83.61439 | 13935 ft | 345 kts | 311° |
| 2026-05-07 03:49 | 33.00427 | -83.62715 | 13626 ft | 344 kts | 312° |
| 2026-05-07 03:50 | 33.02798 | -83.65201 | 13039 ft | 340 kts | 312° |
| 2026-05-07 03:50 | 33.04000 | -83.66455 | 12753 ft | 338 kts | 312° |
| 2026-05-07 03:50 | 33.05739 | -83.68271 | 12339 ft | 335 kts | 312° |
| 2026-05-07 03:50 | 33.07506 | -83.70122 | 11924 ft | 332 kts | 311° |
| 2026-05-07 03:51 | 33.09215 | -83.71916 | 11523 ft | 329 kts | 311° |
| 2026-05-07 03:51 | 33.10926 | -83.73715 | 11165 ft | 325 kts | 311° |
| 2026-05-07 03:51 | 33.12585 | -83.75454 | 11048 ft | 311 kts | 311° |
| 2026-05-07 03:51 | 33.14183 | -83.77131 | 10919 ft | 299 kts | 311° |
| 2026-05-07 03:52 | 33.15722 | -83.78755 | 10662 ft | 292 kts | 311° |
| 2026-05-07 03:52 | 33.17381 | -83.80154 | 10414 ft | 298 kts | 328° |
| 2026-05-07 03:52 | 33.19443 | -83.80659 | 10143 ft | 311 kts | 353° |
| 2026-05-07 03:52 | 33.21623 | -83.80158 | 9832 ft | 321 kts | 10° |
| 2026-05-07 03:53 | 33.23734 | -83.79294 | 9470 ft | 321 kts | 13° |
| 2026-05-07 03:53 | 33.25832 | -83.78376 | 9106 ft | 320 kts | 14° |
| 2026-05-07 03:53 | 33.27907 | -83.77455 | 8760 ft | 317 kts | 14° |
| 2026-05-07 03:53 | 33.29975 | -83.76543 | 8413 ft | 315 kts | 14° |
| 2026-05-07 03:54 | 33.32050 | -83.75766 | 7994 ft | 309 kts | 2° |
| 2026-05-07 03:54 | 33.34111 | -83.75890 | 7512 ft | 287 kts | 335° |
| 2026-05-07 03:54 | 33.35909 | -83.76779 | 7120 ft | 277 kts | 326° |
| 2026-05-07 03:54 | 33.37611 | -83.77831 | 6719 ft | 274 kts | 324° |
| 2026-05-07 03:55 | 33.39264 | -83.78902 | 6310 ft | 273 kts | 324° |
| 2026-05-07 03:55 | 33.40931 | -83.80004 | 6009 ft | 272 kts | 324° |
| 2026-05-07 03:55 | 33.42587 | -83.81104 | 5976 ft | 273 kts | 324° |
| 2026-05-07 03:55 | 33.44250 | -83.82214 | 5975 ft | 274 kts | 324° |
| 2026-05-07 03:56 | 33.45916 | -83.83319 | 5962 ft | 273 kts | 324° |
| 2026-05-07 03:56 | 33.47589 | -83.84421 | 5978 ft | 274 kts | 324° |
| 2026-05-07 03:56 | 33.49264 | -83.85521 | 5963 ft | 274 kts | 324° |
| 2026-05-07 03:56 | 33.50937 | -83.86630 | 5970 ft | 274 kts | 322° |
| 2026-05-07 03:57 | 33.52350 | -83.88059 | 5925 ft | 261 kts | 302° |
| 2026-05-07 03:57 | 33.53343 | -83.89828 | 5632 ft | 258 kts | 295° |
| 2026-05-07 03:57 | 33.54259 | -83.91674 | 5300 ft | 256 kts | 294° |
| 2026-05-07 03:57 | 33.55174 | -83.93520 | 4986 ft | 255 kts | 294° |
| 2026-05-07 03:58 | 33.56083 | -83.95354 | 4677 ft | 256 kts | 294° |
| 2026-05-07 03:58 | 33.56995 | -83.97194 | 4341 ft | 257 kts | 294° |
| 2026-05-07 03:58 | 33.57914 | -83.99036 | 4030 ft | 258 kts | 294° |
| 2026-05-07 03:58 | 33.58842 | -84.00883 | 3720 ft | 259 kts | 294° |
| 2026-05-07 03:59 | 33.59781 | -84.02734 | 3401 ft | 260 kts | 294° |
| 2026-05-07 03:59 | 33.60733 | -84.04591 | 3082 ft | 261 kts | 294° |
| 2026-05-07 03:59 | 33.61693 | -84.06449 | 2967 ft | 260 kts | 294° |
| 2026-05-07 03:59 | 33.62652 | -84.08302 | 2973 ft | 261 kts | 294° |
| 2026-05-07 04:00 | 33.63450 | -84.10218 | 2943 ft | 249 kts | 275° |
| 2026-05-07 04:00 | 33.63504 | -84.12248 | 2966 ft | 241 kts | 259° |
| 2026-05-07 04:00 | 33.63365 | -84.14213 | 2957 ft | 229 kts | 259° |
| 2026-05-07 04:00 | 33.63274 | -84.16066 | 2905 ft | 214 kts | 260° |
| 2026-05-07 04:01 | 33.63235 | -84.17778 | 2954 ft | 196 kts | 259° |
| 2026-05-07 04:01 | 33.63217 | -84.19355 | 2975 ft | 183 kts | 260° |
| 2026-05-07 04:01 | 33.63208 | -84.20848 | 2966 ft | 175 kts | 260° |
| 2026-05-07 04:01 | 33.63200 | -84.22318 | 2979 ft | 175 kts | 260° |
| 2026-05-07 04:02 | 33.63195 | -84.23768 | 2972 ft | 175 kts | 260° |
| 2026-05-07 04:02 | 33.63192 | -84.25235 | 2978 ft | 176 kts | 261° |
| 2026-05-07 04:02 | 33.63191 | -84.26720 | 2990 ft | 178 kts | 261° |
| 2026-05-07 04:02 | 33.63191 | -84.28218 | 2984 ft | 179 kts | 261° |
| 2026-05-07 04:03 | 33.63196 | -84.29663 | 2957 ft | 166 kts | 260° |
| 2026-05-07 04:03 | 33.63198 | -84.31014 | 2755 ft | 157 kts | 259° |
| 2026-05-07 04:03 | 33.63194 | -84.32304 | 2565 ft | 150 kts | 260° |
| 2026-05-07 04:03 | 33.63192 | -84.33524 | 2347 ft | 142 kts | 260° |
| 2026-05-07 04:04 | 33.63191 | -84.34678 | 2165 ft | 138 kts | 260° |
| 2026-05-07 04:04 | 33.63189 | -84.35825 | 2004 ft | 137 kts | 259° |
| 2026-05-07 04:04 | 33.63186 | -84.36981 | 1808 ft | 136 kts | 261° |
| 2026-05-07 04:04 | 33.63184 | -84.38121 | 1618 ft | 137 kts | 264° |
| 2026-05-07 04:05 | 33.63184 | -84.39272 | 1500 ft | 137 kts | 263° |
| 2026-05-07 04:05 | 33.63180 | -84.40415 | 1302 ft | 136 kts | 267° |
| 2026-05-07 04:05 | 33.63191 | -84.41542 | 1159 ft | 136 kts | 264° |
| 2026-05-07 04:05 | 33.63181 | -84.42616 | 1043 ft | 109 kts | 269° |
| 2026-05-07 04:06 | 33.63183 | -84.43257 | 1046 ft | 44 kts | 269° |
| 2026-05-07 04:06 | 33.63182 | -84.43382 | 1036 ft | 2 kts | 269° |
| 2026-05-07 04:06 | 33.63183 | -84.43456 | 1031 ft | 13 kts | 276° |
| 2026-05-07 04:06 | 33.63216 | -84.43591 | 1028 ft | 20 kts | 294° |
| 2026-05-07 04:07 | 33.63271 | -84.43715 | 1023 ft | 14 kts | 314° |
| 2026-05-07 04:07 | 33.63337 | -84.43726 | 1021 ft | 5 kts | 38° |
| 2026-05-07 04:07 | 33.63358 | -84.43679 | 1022 ft | 8 kts | 72° |
| 2026-05-07 04:07 | 33.63392 | -84.43613 | 1022 ft | 8 kts | 31° |
| 2026-05-07 04:08 | 33.63449 | -84.43610 | 1027 ft | 7 kts | 359° |
| 2026-05-07 04:08 | 33.63515 | -84.43611 | 1025 ft | 12 kts | 359° |
| 2026-05-07 04:08 | 33.63580 | -84.43566 | 1022 ft | 12 kts | 79° |
| 2026-05-07 04:08 | 33.63580 | -84.43454 | 1021 ft | 10 kts | 71° |
| 2026-05-07 04:09 | 33.63651 | -84.43423 | 1017 ft | 12 kts | 21° |
| 2026-05-07 04:09 | 33.63663 | -84.43331 | 1040 ft | 10 kts | 103° |
| 2026-05-07 04:09 | 33.63663 | -84.43230 | 1044 ft | 14 kts | 87° |
| 2026-05-07 04:09 | 33.63667 | -84.43090 | 1044 ft | 19 kts | 88° |
| 2026-05-07 04:10 | 33.63664 | -84.42925 | 1044 ft | 13 kts | 93° |
| 2026-05-07 04:10 | 33.63663 | -84.42880 | 1044 ft | 0 kts | 91° |
| 2026-05-07 04:10 | 33.63663 | -84.42871 | 1044 ft | 6 kts | 91° |
| 2026-05-07 04:10 | 33.63676 | -84.42775 | 1044 ft | 14 kts | 60° |
| 2026-05-07 04:11 | 33.63752 | -84.42734 | 1044 ft | 9 kts | 2° |
| 2026-05-07 04:11 | 33.63807 | -84.42727 | 1044 ft | 7 kts | 19° |
| 2026-05-07 04:11 | 33.63838 | -84.42686 | 1044 ft | 3 kts | 86° |
| 2026-05-07 04:11 | 33.63835 | -84.42665 | 1044 ft | 1 kts | 91° |
| 2026-05-07 04:12 | 33.63835 | -84.42655 | 1044 ft | 0 kts | 91° |
| 2026-05-07 04:12 | 33.63835 | -84.42647 | 1044 ft | 2 kts | 91° |
| 2026-05-07 04:12 | 33.63835 | -84.42643 | 1044 ft | 0 kts | 91° |